Terminal Aerodrome Forecast
Issued by NWS

Current Version | Previous Version | Text Only | Print | Product List | Glossary On
Versions: 1 2 3 4 5 6 7 8 9 10 11 12
000
FTUS42 TJSJ 251100
TAFKPK
TAF
TKPK 251121Z 2512/2612 07009KT P6SM FEW020
     FM251300 08012KT P6SM FEW020
     FM252300 07008KT P6SM FEW020
      AMD NOT SKED 2602/2611=

USA.gov is the U.S. government's official web portal to all federal, state and local government web resources and services.